createdAt,value
2023-04-07T00:00:58.127Z,10.50
2023-04-07T00:20:57.860Z,10.90
2023-04-07T00:40:57.592Z,7.90
2023-04-07T01:00:57.310Z,10.20
2023-04-07T01:20:57.062Z,12.30
2023-04-07T01:40:56.785Z,10.00
2023-04-07T02:00:56.541Z,13.40
2023-04-07T02:20:56.193Z,14.80
2023-04-07T02:40:56.012Z,13.50
2023-04-07T03:00:55.724Z,18.60
2023-04-07T03:20:55.434Z,12.70
2023-04-07T03:40:55.191Z,11.80
2023-04-07T04:00:54.913Z,13.50
2023-04-07T04:20:54.619Z,16.30
2023-04-07T04:40:54.362Z,10.50
2023-04-07T05:00:54.088Z,15.40
2023-04-07T05:20:53.804Z,16.40
2023-04-07T05:40:53.537Z,19.20
2023-04-07T06:00:53.283Z,15.70
2023-04-07T06:20:53.012Z,18.50
2023-04-07T06:40:52.739Z,14.60
2023-04-07T07:00:52.430Z,18.30
2023-04-07T07:20:52.167Z,14.00
2023-04-07T07:40:51.899Z,15.10
2023-04-07T08:00:51.657Z,12.60
2023-04-07T08:20:51.409Z,11.70
2023-04-07T08:40:51.100Z,11.00
2023-04-07T09:00:50.892Z,10.90
2023-04-07T09:20:50.562Z,11.20
2023-04-07T09:40:50.316Z,9.40
2023-04-07T10:00:49.986Z,8.60
2023-04-07T10:20:49.753Z,10.60
2023-04-07T10:40:49.477Z,11.60
2023-04-07T11:00:49.237Z,8.80
2023-04-07T11:20:48.918Z,7.60
2023-04-07T11:40:48.639Z,8.00
2023-04-07T12:00:48.360Z,6.60
2023-04-07T12:20:48.081Z,6.60
2023-04-07T12:40:47.804Z,8.00
2023-04-07T13:00:47.581Z,9.10
2023-04-07T13:20:54.884Z,7.90
2023-04-07T13:40:46.981Z,6.40
2023-04-07T14:00:46.787Z,6.30
2023-04-07T14:20:46.436Z,7.40
2023-04-07T14:40:47.176Z,9.50
2023-04-07T15:00:45.920Z,8.70
2023-04-07T15:20:45.611Z,7.70
2023-04-07T15:40:45.321Z,8.50
2023-04-07T16:00:45.136Z,5.70
2023-04-07T16:20:44.771Z,5.40
2023-04-07T16:40:56.803Z,3.30
2023-04-07T17:00:44.419Z,4.60
2023-04-07T17:20:44.001Z,4.80
2023-04-07T17:40:43.682Z,5.20
2023-04-07T18:00:43.474Z,6.70
2023-04-07T18:20:43.185Z,9.90
2023-04-07T18:40:42.896Z,9.80
2023-04-07T19:00:42.779Z,8.10
2023-04-07T19:20:42.341Z,6.70
2023-04-07T19:40:43.105Z,5.60
2023-04-07T20:00:41.801Z,12.00
2023-04-07T20:20:41.542Z,12.50
2023-04-07T20:40:41.334Z,10.90
2023-04-07T21:00:41.082Z,11.30
2023-04-07T21:20:40.744Z,16.60
2023-04-07T21:40:40.461Z,14.20
2023-04-07T22:00:40.196Z,16.30
2023-04-07T22:20:39.958Z,15.70
2023-04-07T22:40:39.659Z,19.40
2023-04-07T23:00:39.452Z,14.10
2023-04-07T23:20:39.157Z,12.30
2023-04-07T23:40:38.912Z,8.90
